Astor — C6JR3 — position and weather

sailwx.info

Track history (hours):
 
Tides and Currents Weather Stations Pressure Air Temp Water Temp Dewpoint Dewpoint Depression Visibility Wind Speed Wind Dir Waves Ship Positions

Astor

Operator: Passat Ship Management Ltd

Last reported at 2020-Jan-06 13:00 UTC. Time now 2020-Jan-25 06:14 UTC.
Position S 35°09' W 056°15'.
Warning: this ship's position is 18 days out of date.

Length 177 m; draft 6.2 m.

Type: Passenger vessel. MMSI: 308214000.

Date/timePositionNaut miles runAvg speedWind from/ knotsBaromVisibWave heightAir tempDewpointWater temp
2020-Jan-06 13:00S 35°09' W 056°15'714.1
2020-Jan-06 12:30S 35°10' W 056°23'18 0.5
2020-Jan-04 22:28S 34°54' W 056°13'0 0.0
2020-Jan-04 20:58S 34°54' W 056°13'0 0.0
2020-Jan-04 20:30S 34°54' W 056°13'0 0.0
2020-Jan-04 19:30S 34°54' W 056°13'0 0.0
2020-Jan-04 16:59S 34°54' W 056°13'1 1.1
2020-Jan-04 16:00S 34°55' W 056°13'510.1
2020-Jan-04 15:30S 35°00' W 056°13'5 9.1
2020-Jan-04 15:00S 35°03' W 056°09'1110.7
2020-Jan-04 14:00S 35°04' W 055°56'  
2020-Jan-02 00:24S 23°23' W 043°28'34 9.9
2020-Jan-01 21:00S 22°54' W 043°11'0 0.0
2020-Jan-01 19:28S 22°54' W 043°11'0 0.0
2020-Jan-01 18:28S 22°54' W 043°11'0 0.0
2020-Jan-01 17:58S 22°54' W 043°11'0 0.0
2020-Jan-01 14:59S 22°54' W 043°11'0 0.0
2020-Jan-01 12:58S 22°54' W 043°11'0 0.0
2020-Jan-01 11:58S 22°54' W 043°11'0 0.0
2020-Jan-01 11:28S 22°54' W 043°11'0 0.0
2020-Jan-01 10:00S 22°54' W 043°11'0 0.0
2020-Jan-01 08:30S 22°54' W 043°11'0 0.0
2020-Jan-01 07:29S 22°54' W 043°11'0 0.1
2020-Jan-01 06:01S 22°54' W 043°11'5 2.1
2020-Jan-01 03:30S 22°58' W 043°09'0 0.0
2020-Jan-01 02:17S 22°58' W 043°09'0 0.0
2020-Jan-01 01:26S 22°58' W 043°09'0 0.0
2019-Dec-31 23:25S 22°58' W 043°09'0 0.0
2019-Dec-31 21:48S 22°58' W 043°09'0 0.2
2019-Dec-31 20:59S 22°58' W 043°08'3 6.5
2019-Dec-31 20:29S 23°01' W 043°06'  
Track history (hours):
 
Tides and Currents Weather Stations Pressure Air Temp Water Temp Dewpoint Dewpoint Depression Visibility Wind Speed Wind Dir Waves Ship Positions

Astor

Operator: Passat Ship Management Ltd

Last reported at 2020-Jan-06 13:00 UTC. Time now 2020-Jan-25 06:14 UTC.
Position S 35°09' W 056°15'.
Warning: this ship's position is 18 days out of date.

Length 177 m; draft 6.2 m.

Type: Passenger vessel. MMSI: 308214000.

Date/timePositionNaut miles runAvg speedWind from/ knotsBaromVisibWave heightAir tempDewpointWater temp
2020-Jan-06 13:00S 35°09' W 056°15'714.1
2020-Jan-06 12:30S 35°10' W 056°23'18 0.5
2020-Jan-04 22:28S 34°54' W 056°13'0 0.0
2020-Jan-04 20:58S 34°54' W 056°13'0 0.0
2020-Jan-04 20:30S 34°54' W 056°13'0 0.0
2020-Jan-04 19:30S 34°54' W 056°13'0 0.0
2020-Jan-04 16:59S 34°54' W 056°13'1 1.1
2020-Jan-04 16:00S 34°55' W 056°13'510.1
2020-Jan-04 15:30S 35°00' W 056°13'5 9.1
2020-Jan-04 15:00S 35°03' W 056°09'1110.7
2020-Jan-04 14:00S 35°04' W 055°56'  
2020-Jan-02 00:24S 23°23' W 043°28'34 9.9
2020-Jan-01 21:00S 22°54' W 043°11'0 0.0
2020-Jan-01 19:28S 22°54' W 043°11'0 0.0
2020-Jan-01 18:28S 22°54' W 043°11'0 0.0
2020-Jan-01 17:58S 22°54' W 043°11'0 0.0
2020-Jan-01 14:59S 22°54' W 043°11'0 0.0
2020-Jan-01 12:58S 22°54' W 043°11'0 0.0
2020-Jan-01 11:58S 22°54' W 043°11'0 0.0
2020-Jan-01 11:28S 22°54' W 043°11'0 0.0
2020-Jan-01 10:00S 22°54' W 043°11'0 0.0
2020-Jan-01 08:30S 22°54' W 043°11'0 0.0
2020-Jan-01 07:29S 22°54' W 043°11'0 0.1
2020-Jan-01 06:01S 22°54' W 043°11'5 2.1
2020-Jan-01 03:30S 22°58' W 043°09'0 0.0
2020-Jan-01 02:17S 22°58' W 043°09'0 0.0
2020-Jan-01 01:26S 22°58' W 043°09'0 0.0
2019-Dec-31 23:25S 22°58' W 043°09'0 0.0
2019-Dec-31 21:48S 22°58' W 043°09'0 0.2
2019-Dec-31 20:59S 22°58' W 043°08'3 6.5
2019-Dec-31 20:29S 23°01' W 043°06'  

Dump ship's entire track history